Time;durP1;ratioP1;P1;durP2;ratioP2;P2;SDS_P1;SDS_P2;PMS_P1;PMS_P2;Temp;Humidity;BMP_temperature;BMP_pressure;BME280_temperature;BME280_humidity;BME280_pressure;Samples;Min_cycle;Max_cycle;Signal;HPM_P1;HPM_P2
2022/10/02 00:01:08;;;;;;;;;;;11.40;99.90;;;;;;5094745;28;19944;-65
2022/10/02 00:03:36;;;;;;;;;;;11.40;99.90;;;;;;5094727;28;19909;-65
2022/10/02 00:06:04;;;;;;;;;;;11.40;99.90;;;;;;5094951;28;20003;-65
2022/10/02 00:08:32;;;;;;;;;;;11.40;99.90;;;;;;5094641;28;19915;-65
2022/10/02 00:11:06;;;;;;;;;;;11.40;99.90;;;;;;5094612;28;19911;-65
2022/10/02 00:13:36;;;;;;;;;;;11.50;99.90;;;;;;5094860;28;19908;-65
2022/10/02 00:16:04;;;;;;;;;;;11.50;99.90;;;;;;5076204;28;19927;-65
2022/10/02 00:18:31;;;;;;;;;;;11.50;99.90;;;;;;5094789;28;20330;-65
2022/10/02 00:21:17;;;;;;;;;;;11.40;99.90;;;;;;5094537;28;19915;-65
2022/10/02 00:23:50;;;;;;;;;;;11.40;99.90;;;;;;5094225;28;19950;-65
2022/10/02 00:26:19;;;;;;;;;;;11.50;99.90;;;;;;5094628;28;20286;-65
2022/10/02 00:29:04;;;;;;;;;;;11.40;99.90;;;;;;5094322;28;19952;-65
2022/10/02 00:31:34;;;;;;;;;;;11.40;99.90;;;;;;5094165;28;19909;-65
2022/10/02 00:34:20;;;;;;;;;;;11.50;99.90;;;;;;5094256;28;19919;-65
2022/10/02 00:36:53;;;;;;;;;;;11.50;99.90;;;;;;5094441;28;19915;-65
2022/10/02 00:39:38;;;;;;;;;;;11.50;99.90;;;;;;5094443;28;20452;-65
2022/10/02 00:42:23;;;;;;;;;;;11.50;99.90;;;;;;5093941;28;20297;-65
2022/10/02 00:44:59;;;;;;;;;;;11.60;99.90;;;;;;5093823;28;20301;-65
2022/10/02 00:47:45;;;;;;;;;;;11.60;99.90;;;;;;5094003;28;19908;-65
2022/10/02 00:50:30;;;;;;;;;;;11.70;99.90;;;;;;5075491;28;20294;-65
2022/10/02 00:53:04;;;;;;;;;;;11.70;99.90;;;;;;5093923;28;19954;-65
2022/10/02 00:55:36;;;;;;;;;;;11.70;99.90;;;;;;5094113;28;19912;-65
2022/10/02 01:00:58;;;;;;;;;;;11.70;99.90;;;;;;5091358;27;19919;-65
2022/10/02 01:03:28;;;;;;;;;;;11.70;99.90;;;;;;5091257;28;19912;-65
2022/10/02 01:05:54;;;;;;;;;;;11.70;99.90;;;;;;5091348;28;19958;-65
2022/10/02 01:08:20;;;;;;;;;;;11.70;99.90;;;;;;5091293;28;20367;-65
2022/10/02 01:10:46;;;;;;;;;;;11.80;99.90;;;;;;5091282;28;19995;-65
2022/10/02 01:13:12;;;;;;;;;;;11.70;99.90;;;;;;5090933;28;19966;-65
2022/10/02 01:15:39;;;;;;;;;;;11.70;99.90;;;;;;5091154;28;19957;-65
2022/10/02 01:18:05;;;;;;;;;;;11.70;99.90;;;;;;5090902;28;20449;-65
2022/10/02 01:20:34;;;;;;;;;;;11.70;99.90;;;;;;5090787;28;19912;-65
2022/10/02 01:23:19;;;;;;;;;;;11.70;99.90;;;;;;5091030;28;19908;-65
2022/10/02 01:25:45;;;;;;;;;;;11.70;99.90;;;;;;5090711;28;19908;-65
2022/10/02 01:28:11;;;;;;;;;;;11.80;99.90;;;;;;5090683;28;19908;-65
2022/10/02 01:30:38;;;;;;;;;;;11.90;99.90;;;;;;5090900;28;19908;-65
2022/10/02 01:33:04;;;;;;;;;;;12.00;99.90;;;;;;5123634;28;20002;-65
2022/10/02 01:35:31;;;;;;;;;;;12.10;99.90;;;;;;5090636;28;19947;-65
2022/10/02 01:37:57;;;;;;;;;;;12.10;99.90;;;;;;5090740;28;20337;-65
2022/10/02 01:40:25;;;;;;;;;;;12.10;99.90;;;;;;5090343;28;19919;-65
2022/10/02 01:42:51;;;;;;;;;;;12.20;99.90;;;;;;5090644;28;19915;-65
2022/10/02 01:45:16;;;;;;;;;;;12.20;99.90;;;;;;5090609;28;19908;-65
2022/10/02 01:47:49;;;;;;;;;;;12.20;99.90;;;;;;5090540;28;20444;-65
2022/10/02 01:50:18;;;;;;;;;;;12.20;99.90;;;;;;5090262;28;19908;-65
2022/10/02 01:53:04;;;;;;;;;;;12.20;99.90;;;;;;5090467;28;20282;-65
2022/10/02 01:55:39;;;;;;;;;;;12.20;99.90;;;;;;5090100;28;19912;-65
2022/10/02 01:58:25;;;;;;;;;;;12.20;99.90;;;;;;5090041;28;20006;-65
2022/10/02 02:01:11;;;;;;;;;;;12.10;99.90;;;;;;5110460;28;19920;-65
2022/10/02 02:03:40;;;;;;;;;;;12.20;99.90;;;;;;5110271;28;19995;-65
2022/10/02 02:06:13;;;;;;;;;;;12.20;99.90;;;;;;5110327;28;19908;-65
2022/10/02 02:08:46;;;;;;;;;;;12.20;99.90;;;;;;5110544;28;20362;-65
2022/10/02 02:11:14;;;;;;;;;;;12.20;99.90;;;;;;5101985;28;20002;-66
2022/10/02 02:13:53;;;;;;;;;;;12.20;99.90;;;;;;5096883;28;20277;-65
2022/10/02 02:16:24;;;;;;;;;;;12.20;99.90;;;;;;5096836;28;19957;-65
2022/10/02 02:18:52;;;;;;;;;;;12.30;99.90;;;;;;5096391;28;19912;-65
2022/10/02 02:21:22;;;;;;;;;;;12.20;99.90;;;;;;5096488;28;19973;-65
2022/10/02 02:23:48;;;;;;;;;;;12.20;99.90;;;;;;5096384;28;19915;-66
2022/10/02 02:26:17;;;;;;;;;;;12.20;99.90;;;;;;5096386;28;19908;-65
2022/10/02 02:28:46;;;;;;;;;;;12.20;99.90;;;;;;5078185;28;19947;-65
2022/10/02 02:31:13;;;;;;;;;;;12.30;99.90;;;;;;5096255;28;19944;-65
2022/10/02 02:33:41;;;;;;;;;;;12.30;99.90;;;;;;5096231;28;20425;-66
2022/10/02 02:36:11;;;;;;;;;;;12.40;99.90;;;;;;5096429;28;20381;-65
2022/10/02 02:38:40;;;;;;;;;;;12.40;99.90;;;;;;5096326;28;19912;-65
2022/10/02 02:41:10;;;;;;;;;;;12.40;99.90;;;;;;5096323;28;19908;-65
2022/10/02 02:43:42;;;;;;;;;;;12.50;99.90;;;;;;5096014;28;19919;-65
2022/10/02 02:46:13;;;;;;;;;;;12.50;99.90;;;;;;5095993;28;19915;-65
2022/10/02 02:48:42;;;;;;;;;;;12.60;99.90;;;;;;5077886;28;20461;-65
2022/10/02 02:51:12;;;;;;;;;;;12.50;99.90;;;;;;5096153;28;19957;-65
2022/10/02 02:53:40;;;;;;;;;;;12.60;99.90;;;;;;5095824;28;19917;-65
2022/10/02 02:56:09;;;;;;;;;;;12.60;99.90;;;;;;5095803;28;19916;-65
2022/10/02 02:58:38;;;;;;;;;;;12.60;99.90;;;;;;5095764;28;19909;-65
2022/10/02 03:01:04;;;;;;;;;;;12.70;99.90;;;;;;5095958;28;20366;-65
2022/10/02 03:03:29;;;;;;;;;;;12.70;99.90;;;;;;5095927;28;19914;-65
2022/10/02 03:06:00;;;;;;;;;;;12.80;99.90;;;;;;5077823;28;20415;-65
2022/10/02 03:08:28;;;;;;;;;;;12.80;99.90;;;;;;5095578;28;19908;-65
2022/10/02 03:11:03;;;;;;;;;;;12.80;99.90;;;;;;5095778;28;19908;-65
2022/10/02 03:13:48;;;;;;;;;;;12.80;99.90;;;;;;5095748;28;19915;-65
2022/10/02 03:19:27;;;;;;;;;;;12.80;99.90;;;;;;5152842;27;20014;-65
2022/10/02 03:21:59;;;;;;;;;;;12.80;99.90;;;;;;5152517;27;19934;-65
2022/10/02 03:24:28;;;;;;;;;;;12.80;99.90;;;;;;5152924;27;20388;-65
2022/10/02 03:27:01;;;;;;;;;;;12.80;99.90;;;;;;5152653;27;19907;-65
2022/10/02 03:29:31;;;;;;;;;;;12.80;99.90;;;;;;5152829;27;20247;-65
2022/10/02 03:31:58;;;;;;;;;;;12.80;99.90;;;;;;5152772;27;19908;-66
2022/10/02 03:34:24;;;;;;;;;;;12.80;99.90;;;;;;5152700;27;20378;-65
2022/10/02 03:36:50;;;;;;;;;;;12.80;99.90;;;;;;5152329;27;19933;-65
2022/10/02 03:39:15;;;;;;;;;;;12.80;99.90;;;;;;5152318;27;19914;-66
2022/10/02 03:41:41;;;;;;;;;;;12.80;99.90;;;;;;5152300;27;19959;-66
2022/10/02 03:44:07;;;;;;;;;;;12.80;99.90;;;;;;5152531;27;19907;-65
2022/10/02 03:46:32;;;;;;;;;;;12.80;99.90;;;;;;5152226;27;19907;-65
2022/10/02 03:48:58;;;;;;;;;;;12.80;99.90;;;;;;5152397;27;19960;-66
2022/10/02 03:51:23;;;;;;;;;;;12.70;99.90;;;;;;5152402;27;19908;-66
2022/10/02 03:53:49;;;;;;;;;;;12.70;99.90;;;;;;5152338;27;19912;-65
2022/10/02 03:56:23;;;;;;;;;;;12.70;99.90;;;;;;5152046;27;20389;-65
2022/10/02 03:58:50;;;;;;;;;;;12.80;99.90;;;;;;5152217;27;20431;-65
2022/10/02 04:01:19;;;;;;;;;;;12.80;99.90;;;;;;5151980;27;19950;-65
2022/10/02 04:03:51;;;;;;;;;;;12.90;99.90;;;;;;5152195;27;19907;-65
2022/10/02 04:06:19;;;;;;;;;;;12.90;99.90;;;;;;5152082;27;20426;-65
2022/10/02 04:08:47;;;;;;;;;;;12.90;99.90;;;;;;5151820;27;19912;-65
2022/10/02 04:11:17;;;;;;;;;;;12.90;99.90;;;;;;5152011;27;19908;-65
2022/10/02 04:13:53;;;;;;;;;;;12.90;99.90;;;;;;5151747;27;19907;-65
2022/10/02 04:16:24;;;;;;;;;;;13.00;99.90;;;;;;5151881;27;19908;-65
2022/10/02 04:18:54;;;;;;;;;;;13.10;99.90;;;;;;5151416;27;20005;-66
2022/10/02 04:21:33;;;;;;;;;;;13.00;99.90;;;;;;5151536;27;19914;-65
2022/10/02 04:24:03;;;;;;;;;;;13.00;99.90;;;;;;5151747;27;19976;-65
2022/10/02 04:26:32;;;;;;;;;;;13.00;99.90;;;;;;5151700;27;19911;-67
2022/10/02 04:29:00;;;;;;;;;;;13.00;99.90;;;;;;5146530;27;20389;-66
2022/10/02 04:31:27;;;;;;;;;;;13.00;99.90;;;;;;5137518;27;19908;-66
2022/10/02 04:33:53;;;;;;;;;;;13.00;99.90;;;;;;5137761;27;20095;-65
2022/10/02 04:36:25;;;;;;;;;;;13.00;99.90;;;;;;5137420;27;19908;-66
2022/10/02 04:39:01;;;;;;;;;;;13.10;99.90;;;;;;5137322;27;19912;-66
2022/10/02 04:41:35;;;;;;;;;;;13.00;99.90;;;;;;5137610;27;20281;-66
2022/10/02 04:44:07;;;;;;;;;;;13.10;99.90;;;;;;5137574;27;19907;-66
2022/10/02 04:46:53;;;;;;;;;;;13.10;99.90;;;;;;5137510;27;19957;-66
2022/10/02 04:49:32;;;;;;;;;;;13.10;99.90;;;;;;5137075;27;19911;-66
2022/10/02 04:52:17;;;;;;;;;;;13.10;99.90;;;;;;5137151;27;19946;-66
2022/10/02 04:54:53;;;;;;;;;;;13.20;99.90;;;;;;5137052;27;19908;-66
2022/10/02 04:57:39;;;;;;;;;;;13.20;99.90;;;;;;5137268;27;20369;-67
2022/10/02 05:00:13;;;;;;;;;;;13.20;99.90;;;;;;5136954;27;20385;-66
2022/10/02 05:02:55;;;;;;;;;;;13.20;99.90;;;;;;5137193;27;20431;-66
2022/10/02 05:05:26;;;;;;;;;;;13.20;99.90;;;;;;5136894;27;19936;-66
2022/10/02 05:08:11;;;;;;;;;;;13.20;99.90;;;;;;5137120;27;20326;-66
2022/10/02 05:10:49;;;;;;;;;;;13.20;99.90;;;;;;5136721;27;20416;-66
2022/10/02 05:13:20;;;;;;;;;;;13.30;99.90;;;;;;5137039;27;19956;-66
2022/10/02 05:16:06;;;;;;;;;;;13.30;99.90;;;;;;5136662;27;20421;-66
2022/10/02 05:18:42;;;;;;;;;;;13.30;99.90;;;;;;5136257;27;20317;-66
2022/10/02 05:21:16;;;;;;;;;;;13.30;99.90;;;;;;5136862;27;20325;-66
2022/10/02 05:23:54;;;;;;;;;;;13.30;99.90;;;;;;5136807;27;19908;-66
2022/10/02 05:26:30;;;;;;;;;;;13.30;99.90;;;;;;5136491;27;19908;-66
2022/10/02 05:29:09;;;;;;;;;;;13.30;99.90;;;;;;5136481;27;19915;-66
2022/10/02 05:31:45;;;;;;;;;;;13.30;99.90;;;;;;5136701;27;20284;-66
2022/10/02 05:34:21;;;;;;;;;;;13.40;99.90;;;;;;5136346;27;19907;-66
2022/10/02 05:36:55;;;;;;;;;;;13.40;99.90;;;;;;5117820;27;19914;-66
2022/10/02 05:39:26;;;;;;;;;;;13.40;99.90;;;;;;5136503;27;19977;-65
2022/10/02 05:42:12;;;;;;;;;;;13.40;99.90;;;;;;5135431;27;19914;-65
2022/10/02 05:44:39;;;;;;;;;;;13.40;99.90;;;;;;5136032;27;19951;-65
2022/10/02 05:47:10;;;;;;;;;;;13.50;99.90;;;;;;5136332;27;19907;-66
2022/10/02 05:49:38;;;;;;;;;;;13.50;99.90;;;;;;5136278;27;19949;-66
2022/10/02 05:52:06;;;;;;;;;;;13.50;99.90;;;;;;5136044;27;19907;-66
2022/10/02 05:54:36;;;;;;;;;;;13.50;99.90;;;;;;5135885;27;20382;-66
2022/10/02 05:57:21;;;;;;;;;;;13.50;99.90;;;;;;5135872;27;19908;-66
2022/10/02 05:59:53;;;;;;;;;;;13.60;99.90;;;;;;5135705;27;20342;-66
2022/10/02 06:02:23;;;;;;;;;;;13.60;99.90;;;;;;5135786;27;19911;-66
2022/10/02 06:04:54;;;;;;;;;;;13.60;99.90;;;;;;5135721;27;19954;-66
2022/10/02 06:07:19;;;;;;;;;;;13.50;99.90;;;;;;5135695;27;20047;-66
2022/10/02 06:09:46;;;;;;;;;;;13.60;99.90;;;;;;5135933;27;19912;-66
2022/10/02 06:12:16;;;;;;;;;;;13.60;99.90;;;;;;5135540;27;19915;-66
2022/10/02 06:14:51;;;;;;;;;;;13.60;99.90;;;;;;5135792;27;19908;-66
2022/10/02 06:17:21;;;;;;;;;;;13.60;99.90;;;;;;5135386;27;20336;-65
2022/10/02 06:20:06;;;;;;;;;;;13.60;99.90;;;;;;5135463;27;20425;-66
2022/10/02 06:22:34;;;;;;;;;;;13.70;99.90;;;;;;5135219;27;20297;-66
2022/10/02 06:25:19;;;;;;;;;;;13.70;99.90;;;;;;5135604;27;19915;-66
2022/10/02 06:27:48;;;;;;;;;;;13.70;99.90;;;;;;5135116;27;19908;-66
2022/10/02 06:30:16;;;;;;;;;;;13.70;99.90;;;;;;5135231;27;19915;-65
2022/10/02 06:33:00;;;;;;;;;;;13.70;99.90;;;;;;5135482;27;19986;-65
2022/10/02 06:35:46;;;;;;;;;;;13.70;99.90;;;;;;5135141;27;20377;-66
2022/10/02 06:38:15;;;;;;;;;;;13.70;99.90;;;;;;5134879;27;19912;-66
2022/10/02 06:40:45;;;;;;;;;;;13.80;99.90;;;;;;5116704;27;19908;-65
2022/10/02 06:43:19;;;;;;;;;;;13.80;99.90;;;;;;5135318;27;19907;-65
2022/10/02 06:45:57;;;;;;;;;;;13.80;99.90;;;;;;5134979;27;19908;-65
2022/10/02 06:48:28;;;;;;;;;;;13.90;99.90;;;;;;5116528;27;19908;-65
2022/10/02 06:50:59;;;;;;;;;;;13.90;99.90;;;;;;5134923;27;19908;-65
2022/10/02 06:53:36;;;;;;;;;;;14.00;99.90;;;;;;5134897;27;19950;-66
2022/10/02 06:56:21;;;;;;;;;;;14.10;99.90;;;;;;5116705;28;20429;-65
2022/10/02 06:59:06;;;;;;;;;;;14.10;99.90;;;;;;5134569;27;20365;-65
2022/10/02 07:01:39;;;;;;;;;;;14.10;99.90;;;;;;5134531;27;19908;-63
2022/10/02 07:04:15;;;;;;;;;;;14.10;99.90;;;;;;5135004;27;19979;-65
2022/10/02 07:07:01;;;;;;;;;;;14.10;99.90;;;;;;5134993;27;19907;-65
2022/10/02 07:09:46;;;;;;;;;;;14.10;99.90;;;;;;5134610;27;19915;-65
2022/10/02 07:12:19;;;;;;;;;;;14.10;99.90;;;;;;5134486;27;19914;-65
2022/10/02 07:15:05;;;;;;;;;;;14.00;99.90;;;;;;5134880;27;20299;-65
2022/10/02 07:23:27;;;;;;;;;;;14.20;99.90;;;;;;5091489;27;19913;-66
2022/10/02 07:26:01;;;;;;;;;;;14.30;99.90;;;;;;5091237;28;19919;-65
2022/10/02 07:28:33;;;;;;;;;;;14.20;99.90;;;;;;5091388;28;19909;-65
2022/10/02 07:31:06;;;;;;;;;;;14.30;99.90;;;;;;5091339;28;19919;-65
2022/10/02 07:33:39;;;;;;;;;;;14.40;99.90;;;;;;5091319;28;20003;-65
2022/10/02 07:36:10;;;;;;;;;;;14.50;99.90;;;;;;5091217;28;19913;-65
2022/10/02 07:38:42;;;;;;;;;;;14.50;99.90;;;;;;5091080;28;20386;-65
2022/10/02 07:41:27;;;;;;;;;;;14.50;99.90;;;;;;5090887;28;19916;-65
2022/10/02 07:44:04;;;;;;;;;;;14.40;99.90;;;;;;5089533;28;19909;-65
2022/10/02 07:46:39;;;;;;;;;;;14.50;99.90;;;;;;5090835;28;19934;-65
2022/10/02 07:49:25;;;;;;;;;;;14.50;99.90;;;;;;5091052;28;20344;-65
2022/10/02 07:51:55;;;;;;;;;;;14.60;99.90;;;;;;5090771;28;19916;-66
2022/10/02 07:54:31;;;;;;;;;;;14.90;99.90;;;;;;5090892;28;20297;-65
2022/10/02 07:56:59;;;;;;;;;;;15.00;99.90;;;;;;5090534;28;19908;-66
2022/10/02 07:59:25;;;;;;;;;;;15.10;99.90;;;;;;5090518;28;19916;-65
2022/10/02 08:01:51;;;;;;;;;;;15.20;99.90;;;;;;5090709;28;19913;-65
2022/10/02 08:04:21;;;;;;;;;;;15.00;99.90;;;;;;5090741;28;19909;-65
2022/10/02 08:06:47;;;;;;;;;;;15.00;99.90;;;;;;5090380;28;19956;-65
2022/10/02 08:09:14;;;;;;;;;;;15.00;99.90;;;;;;5090572;28;19908;-66
2022/10/02 08:11:43;;;;;;;;;;;15.10;99.90;;;;;;5090578;28;20317;-66
2022/10/02 08:14:18;;;;;;;;;;;15.20;99.90;;;;;;5090582;28;20003;-66
2022/10/02 08:16:46;;;;;;;;;;;15.20;99.90;;;;;;5090433;28;19909;-65
2022/10/02 08:19:15;;;;;;;;;;;15.10;99.90;;;;;;5090425;28;20366;-65
2022/10/02 08:21:45;;;;;;;;;;;15.10;99.90;;;;;;5098593;28;19920;-66
2022/10/02 08:24:16;;;;;;;;;;;15.10;99.90;;;;;;5110687;28;19962;-65
2022/10/02 08:26:46;;;;;;;;;;;15.10;99.90;;;;;;5110605;28;19965;-66
2022/10/02 08:29:33;;;;;;;;;;;15.10;99.90;;;;;;5110288;28;20003;-66
2022/10/02 08:31:59;;;;;;;;;;;15.10;99.90;;;;;;5110321;28;19919;-66
2022/10/02 08:34:25;;;;;;;;;;;15.10;99.90;;;;;;5096927;28;19908;-66
2022/10/02 08:36:59;;;;;;;;;;;15.20;99.90;;;;;;5096804;28;19957;-66
2022/10/02 08:44:57;;;;;;;;;;;15.40;99.90;;;;;;5091318;27;19912;-66
2022/10/02 08:47:34;;;;;;;;;;;15.50;99.90;;;;;;5091394;28;19967;-65
2022/10/02 08:50:19;;;;;;;;;;;15.60;99.90;;;;;;5091347;28;20418;-66
2022/10/02 08:52:51;;;;;;;;;;;15.50;99.90;;;;;;5091071;28;20363;-66
2022/10/02 08:55:30;;;;;;;;;;;15.60;99.90;;;;;;5091276;28;19908;-66
2022/10/02 08:58:15;;;;;;;;;;;15.80;99.90;;;;;;5090953;28;19912;-66
2022/10/02 09:00:47;;;;;;;;;;;15.90;99.90;;;;;;5090936;28;19913;-66
2022/10/02 09:03:33;;;;;;;;;;;15.80;99.90;;;;;;5090735;28;19967;-66
2022/10/02 09:09:11;;;;;;;;;;;15.80;99.90;;;;;;5071134;28;19913;-66
2022/10/02 09:11:58;;;;;;;;;;;16.00;99.90;;;;;;5070881;28;19913;-66
2022/10/02 09:14:36;;;;;;;;;;;16.20;99.90;;;;;;5070802;28;20436;-66
2022/10/02 09:17:22;;;;;;;;;;;16.10;99.90;;;;;;5086690;28;20318;-66
2022/10/02 09:20:07;;;;;;;;;;;15.90;99.90;;;;;;5070910;28;19962;-66
2022/10/02 09:22:54;;;;;;;;;;;16.30;99.90;;;;;;5070712;28;19958;-66
2022/10/02 09:25:37;;;;;;;;;;;16.80;99.90;;;;;;5070633;28;19920;-66
2022/10/02 09:28:22;;;;;;;;;;;16.60;99.90;;;;;;5070748;28;19962;-66
2022/10/02 09:31:08;;;;;;;;;;;16.60;99.90;;;;;;5070552;28;19916;-66
2022/10/02 09:33:53;;;;;;;;;;;16.80;99.90;;;;;;5070492;28;19909;-66
2022/10/02 09:36:38;;;;;;;;;;;17.70;99.90;;;;;;5070502;28;19963;-66
2022/10/02 09:39:24;;;;;;;;;;;17.80;99.90;;;;;;5070486;28;19948;-66
2022/10/02 09:42:07;;;;;;;;;;;18.00;99.90;;;;;;5070254;28;19908;-66
2022/10/02 09:44:57;;;;;;;;;;;18.40;99.90;;;;;;5070575;28;20309;-66
2022/10/02 09:47:42;;;;;;;;;;;18.20;99.90;;;;;;5070054;28;19917;-66
2022/10/02 09:50:25;;;;;;;;;;;17.90;99.90;;;;;;5070098;28;19992;-66
2022/10/02 09:53:10;;;;;;;;;;;17.50;99.90;;;;;;5070180;28;20382;-66
2022/10/02 09:55:52;;;;;;;;;;;17.40;99.90;;;;;;5069979;28;20364;-66
2022/10/02 09:58:39;;;;;;;;;;;17.60;99.90;;;;;;5070213;28;19909;-66
2022/10/02 10:01:24;;;;;;;;;;;17.30;99.90;;;;;;5069870;28;20007;-66
2022/10/02 10:03:58;;;;;;;;;;;17.10;99.90;;;;;;5069886;28;19915;-66
2022/10/02 10:06:43;;;;;;;;;;;17.10;99.90;;;;;;5069993;28;19909;-65
2022/10/02 10:09:28;;;;;;;;;;;16.90;99.90;;;;;;5090027;28;19912;-66
2022/10/02 10:12:13;;;;;;;;;;;16.90;99.90;;;;;;5089888;28;19962;-66
2022/10/02 10:14:52;;;;;;;;;;;16.80;99.90;;;;;;5089871;28;19908;-66
2022/10/02 10:17:38;;;;;;;;;;;17.10;99.90;;;;;;5090195;28;20309;-66
2022/10/02 10:20:24;;;;;;;;;;;17.60;99.90;;;;;;5077191;28;19963;-66
2022/10/02 10:23:06;;;;;;;;;;;17.50;99.90;;;;;;5076313;28;19915;-66
2022/10/02 10:25:51;;;;;;;;;;;17.70;99.90;;;;;;5076538;28;19908;-66
2022/10/02 10:28:36;;;;;;;;;;;17.70;99.90;;;;;;5076040;28;19912;-66
2022/10/02 10:31:22;;;;;;;;;;;18.20;99.90;;;;;;5076134;28;19909;-66
2022/10/02 10:34:07;;;;;;;;;;;18.70;99.90;;;;;;5075891;28;19960;-66
2022/10/02 10:39:59;;;;;;;;;;;18.10;99.90;;;;;;5075722;28;19995;-66
2022/10/02 10:42:48;;;;;;;;;;;17.90;99.90;;;;;;5075751;28;19912;-65
2022/10/02 10:45:33;;;;;;;;;;;17.80;99.90;;;;;;5075803;28;19908;-66
2022/10/02 10:51:04;;;;;;;;;;;18.10;99.90;;;;;;5091238;27;19913;-66
2022/10/02 10:53:44;;;;;;;;;;;18.90;99.90;;;;;;5091172;28;20396;-66
2022/10/02 10:56:22;;;;;;;;;;;19.00;99.90;;;;;;5091134;28;19944;-66
2022/10/02 10:59:07;;;;;;;;;;;19.20;99.90;;;;;;5091287;28;20370;-66
2022/10/02 11:01:43;;;;;;;;;;;19.40;99.90;;;;;;5091116;28;20398;-66
2022/10/02 11:04:16;;;;;;;;;;;19.70;99.90;;;;;;5090939;28;19915;-66
2022/10/02 11:06:53;;;;;;;;;;;19.70;99.90;;;;;;5091424;28;19912;-66
2022/10/02 11:09:38;;;;;;;;;;;19.70;99.90;;;;;;5091020;28;19982;-66
2022/10/02 11:12:11;;;;;;;;;;;19.70;99.90;;;;;;5090914;28;20264;-66
2022/10/02 11:14:50;;;;;;;;;;;19.60;99.90;;;;;;5091018;28;20298;-66
2022/10/02 11:17:32;;;;;;;;;;;19.60;99.90;;;;;;5090993;28;19916;-66
2022/10/02 11:20:18;;;;;;;;;;;19.50;99.90;;;;;;5090587;28;19969;-66
2022/10/02 11:23:03;;;;;;;;;;;19.30;99.90;;;;;;5090557;28;19954;-65
2022/10/02 11:25:34;;;;;;;;;;;19.50;99.90;;;;;;5089275;28;20328;-66
2022/10/02 11:28:20;;;;;;;;;;;19.30;99.90;;;;;;5090810;28;19931;-66
2022/10/02 11:31:06;;;;;;;;;;;19.20;99.90;;;;;;5090386;28;19912;-67
2022/10/02 11:33:43;;;;;;;;;;;19.70;99.90;;;;;;5090444;28;19913;-67
2022/10/02 11:36:40;;;;;;;;;;;19.30;99.90;;;;;;5090504;28;20314;-66
2022/10/02 11:39:14;;;;;;;;;;;19.00;99.90;;;;;;5090319;28;20289;-66
2022/10/02 11:41:59;;;;;;;;;;;18.60;99.90;;;;;;5090516;28;19958;-66
2022/10/02 11:44:30;;;;;;;;;;;18.20;99.90;;;;;;5090296;28;19909;-66
2022/10/02 11:47:07;;;;;;;;;;;18.50;99.90;;;;;;5090454;28;19908;-66
2022/10/02 11:49:40;;;;;;;;;;;18.70;99.90;;;;;;5100601;28;19924;-67
2022/10/02 11:52:13;;;;;;;;;;;18.50;99.90;;;;;;5110682;28;20002;-66
2022/10/02 11:54:58;;;;;;;;;;;18.20;99.90;;;;;;5110297;28;19915;-66
2022/10/02 11:57:33;;;;;;;;;;;18.10;99.90;;;;;;5110155;28;20018;-66
2022/10/02 12:00:12;;;;;;;;;;;17.90;99.90;;;;;;5108992;28;19908;-66
2022/10/02 12:02:43;;;;;;;;;;;17.80;99.90;;;;;;5097029;28;19909;-67
2022/10/02 12:05:32;;;;;;;;;;;17.90;99.90;;;;;;5096590;28;19958;-66
2022/10/02 12:08:02;;;;;;;;;;;18.40;99.90;;;;;;5096494;28;19909;-66
2022/10/02 12:10:32;;;;;;;;;;;18.90;99.90;;;;;;5096632;28;19961;-66
2022/10/02 12:13:18;;;;;;;;;;;19.20;99.90;;;;;;5078263;28;20298;-66
2022/10/02 12:16:03;;;;;;;;;;;19.40;99.90;;;;;;5096253;28;20299;-66
2022/10/02 12:18:48;;;;;;;;;;;19.60;99.90;;;;;;5096148;28;19908;-66
2022/10/02 12:27:11;;;;;;;;;;;19.10;99.90;;;;;;5095973;28;20389;-66
2022/10/02 12:29:57;;;;;;;;;;;18.90;99.90;;;;;;5096283;28;19916;-66
2022/10/02 12:32:42;;;;;;;;;;;18.60;99.90;;;;;;5095979;28;19915;-66
2022/10/02 12:35:28;;;;;;;;;;;18.30;99.90;;;;;;5095901;28;19915;-66
2022/10/02 12:38:00;;;;;;;;;;;18.10;99.90;;;;;;5095827;28;19908;-66
2022/10/02 12:40:32;;;;;;;;;;;18.00;99.90;;;;;;5096115;28;20359;-66
2022/10/02 12:43:06;;;;;;;;;;;18.00;99.90;;;;;;5095816;28;19908;-66
2022/10/02 12:45:53;;;;;;;;;;;17.80;99.90;;;;;;5096057;28;19934;-66
2022/10/02 12:48:38;;;;;;;;;;;18.00;99.90;;;;;;5095542;28;20393;-66
2022/10/02 12:51:18;;;;;;;;;;;18.40;99.90;;;;;;5095650;28;20430;-66
2022/10/02 12:53:56;;;;;;;;;;;18.50;99.90;;;;;;5095907;28;19968;-66
2022/10/02 12:56:42;;;;;;;;;;;18.40;99.90;;;;;;5095550;28;19951;-66
2022/10/02 12:59:12;;;;;;;;;;;18.10;99.90;;;;;;5080500;28;19912;-67
2022/10/02 13:01:49;;;;;;;;;;;18.20;99.90;;;;;;5095679;28;20006;-66
2022/10/02 13:07:27;;;;;;;;;;;19.00;99.90;;;;;;5071101;28;19912;-65
2022/10/02 13:10:04;;;;;;;;;;;18.80;99.90;;;;;;5071200;28;19948;-65
2022/10/02 13:12:39;;;;;;;;;;;18.60;99.90;;;;;;5071158;28;19955;-65
2022/10/02 13:15:24;;;;;;;;;;;18.80;99.90;;;;;;5070876;28;19908;-65
2022/10/02 13:18:10;;;;;;;;;;;18.80;99.90;;;;;;5070766;28;19909;-66
2022/10/02 13:20:38;;;;;;;;;;;19.10;99.90;;;;;;5070702;28;19908;-65
2022/10/02 13:23:17;;;;;;;;;;;19.00;99.90;;;;;;5070966;28;19947;-66
2022/10/02 13:28:49;;;;;;;;;;;18.40;99.90;;;;;;5091400;27;20383;-66
2022/10/02 13:31:21;;;;;;;;;;;18.20;99.90;;;;;;5091187;28;19912;-66
2022/10/02 13:33:53;;;;;;;;;;;18.20;99.90;;;;;;5091132;28;19915;-66
2022/10/02 13:36:27;;;;;;;;;;;18.10;99.90;;;;;;5091300;28;19931;-66
2022/10/02 13:39:06;;;;;;;;;;;18.00;99.90;;;;;;5091315;28;20370;-66
2022/10/02 13:41:37;;;;;;;;;;;17.90;99.90;;;;;;5090926;28;19916;-66
2022/10/02 13:46:50;;;;;;;;;;;17.50;99.90;;;;;;5071049;28;19919;-65
2022/10/02 13:49:36;;;;;;;;;;;17.30;99.90;;;;;;5071190;28;19982;-65
2022/10/02 13:55:10;;;;;;;;;;;17.30;99.90;;;;;;5071006;28;20294;-66
2022/10/02 13:57:40;;;;;;;;;;;17.20;99.90;;;;;;5070893;28;19919;-66
2022/10/02 14:00:09;;;;;;;;;;;17.30;99.90;;;;;;5071186;28;19909;-66
2022/10/02 14:02:45;;;;;;;;;;;17.40;99.90;;;;;;5071113;28;19958;-66
2022/10/02 14:05:13;;;;;;;;;;;17.30;99.90;;;;;;5071093;28;19931;-66
2022/10/02 14:07:59;;;;;;;;;;;17.30;99.90;;;;;;5070805;28;19942;-67
2022/10/02 14:10:31;;;;;;;;;;;17.30;99.90;;;;;;5069371;28;19956;-66
2022/10/02 14:13:03;;;;;;;;;;;17.20;99.90;;;;;;5070538;28;19919;-66
2022/10/02 14:15:34;;;;;;;;;;;17.10;99.90;;;;;;5070883;28;19967;-66
2022/10/02 14:18:14;;;;;;;;;;;16.90;99.90;;;;;;5070540;28;19915;-66
2022/10/02 14:20:45;;;;;;;;;;;16.90;99.90;;;;;;5070779;28;19909;-66
2022/10/02 14:23:29;;;;;;;;;;;16.80;99.90;;;;;;5070677;28;19909;-66
2022/10/02 14:26:01;;;;;;;;;;;16.70;99.90;;;;;;5070417;28;19909;-66
2022/10/02 14:28:46;;;;;;;;;;;16.70;99.90;;;;;;5070581;28;20008;-66
2022/10/02 14:31:33;;;;;;;;;;;16.70;99.90;;;;;;5070227;28;19945;-66
2022/10/02 14:34:06;;;;;;;;;;;16.70;99.90;;;;;;5070436;28;20264;-66
2022/10/02 14:36:45;;;;;;;;;;;16.70;99.90;;;;;;5070420;28;19910;-66
2022/10/02 14:39:30;;;;;;;;;;;16.70;99.90;;;;;;5070037;28;19970;-66
2022/10/02 14:44:55;;;;;;;;;;;16.80;99.90;;;;;;5071134;28;19913;-66
2022/10/02 14:47:28;;;;;;;;;;;16.70;99.90;;;;;;5070936;28;20402;-66
2022/10/02 14:50:02;;;;;;;;;;;16.70;99.90;;;;;;5071163;28;19959;-66
2022/10/02 14:52:48;;;;;;;;;;;16.60;99.90;;;;;;5071069;28;20410;-65
2022/10/02 14:55:17;;;;;;;;;;;16.50;99.90;;;;;;5070777;28;19936;-66
2022/10/02 14:58:03;;;;;;;;;;;16.60;99.90;;;;;;5071002;28;20290;-65
2022/10/02 15:00:34;;;;;;;;;;;16.80;99.90;;;;;;5070653;28;19930;-65
2022/10/02 15:03:12;;;;;;;;;;;17.10;99.90;;;;;;5070737;28;20387;-65
2022/10/02 15:05:43;;;;;;;;;;;17.40;99.90;;;;;;5070829;28;20260;-66
2022/10/02 15:08:13;;;;;;;;;;;17.50;99.90;;;;;;5070489;28;19909;-65
2022/10/02 15:10:41;;;;;;;;;;;17.60;99.90;;;;;;5070476;28;19909;-66
2022/10/02 15:13:12;;;;;;;;;;;17.70;99.90;;;;;;5070691;28;19915;-65
2022/10/02 15:17:53;;;;;;;;;;;17.60;99.90;;;;;;5086381;28;19915;-65
2022/10/02 15:18:38;;;;;;;;;;;17.40;99.90;;;;;;5070197;28;20003;-65
2022/10/02 15:21:25;;;;;;;;;;;17.20;99.90;;;;;;5070589;28;20370;-65
2022/10/02 15:23:54;;;;;;;;;;;17.10;99.90;;;;;;5070062;28;19913;-66
2022/10/02 15:26:29;;;;;;;;;;;16.90;99.90;;;;;;5070185;28;19908;-65
2022/10/02 15:29:10;;;;;;;;;;;16.80;99.90;;;;;;5070408;28;20420;-65
2022/10/02 15:31:43;;;;;;;;;;;16.60;99.90;;;;;;5070343;28;19999;-65
2022/10/02 15:34:28;;;;;;;;;;;16.70;99.90;;;;;;5070258;28;19923;-65
2022/10/02 15:37:14;;;;;;;;;;;16.60;99.90;;;;;;5068574;28;19915;-65
2022/10/02 15:42:28;;;;;;;;;;;16.70;99.90;;;;;;5071074;28;19913;-66
2022/10/02 15:45:02;;;;;;;;;;;16.70;99.90;;;;;;5071190;28;19919;-66
2022/10/02 15:47:48;;;;;;;;;;;16.70;99.90;;;;;;5070850;28;19962;-66
2022/10/02 15:50:25;;;;;;;;;;;16.60;99.90;;;;;;5070843;28;19972;-66
2022/10/02 15:53:11;;;;;;;;;;;16.50;99.90;;;;;;5071055;28;19909;-66